Terminal Aerodrome Forecast
Issued by NWS

Home | Current Version | Previous Version | Graphics & Text | Print | Product List | Glossary Off
Versions: 1 2 3 4 5 6 7 8 9 10 11 12 13 14 15 16 17 18 19 20 21 22

498
FTUS43 KABR 181720
TAFMBG
TAF
KMBG 181720Z 1818/1918 26014G23KT P6SM BKN080
     FM190000 27013KT P6SM BKN080
     FM190400 31010G18KT P6SM BKN060
     FM190800 31009KT P6SM SCT100=

USA.gov is the U.S. government's official web portal to all federal, state and local government web resources and services.